sensor_id;sensor_type;location;lat;lon;timestamp;temperature;humidity
59999;DHT22;45859;51.378;6.736;2022-07-29T00:01:21;19.80;99.90
59999;DHT22;45859;51.378;6.736;2022-07-29T00:03:47;19.80;99.90
59999;DHT22;45859;51.378;6.736;2022-07-29T00:06:13;19.70;99.90
59999;DHT22;45859;51.378;6.736;2022-07-29T00:08:38;19.70;99.90
59999;DHT22;45859;51.378;6.736;2022-07-29T00:11:04;19.70;99.90
59999;DHT22;45859;51.378;6.736;2022-07-29T00:13:30;19.70;99.90
59999;DHT22;45859;51.378;6.736;2022-07-29T00:15:55;19.70;99.90
59999;DHT22;45859;51.378;6.736;2022-07-29T00:18:21;19.70;99.90
59999;DHT22;45859;51.378;6.736;2022-07-29T00:20:47;19.60;99.90
59999;DHT22;45859;51.378;6.736;2022-07-29T00:23:12;19.60;99.90
59999;DHT22;45859;51.378;6.736;2022-07-29T00:25:38;19.60;99.90
59999;DHT22;45859;51.378;6.736;2022-07-29T00:28:03;19.60;99.90
59999;DHT22;45859;51.378;6.736;2022-07-29T00:30:29;19.60;99.90
59999;DHT22;45859;51.378;6.736;2022-07-29T00:32:55;19.50;99.90
59999;DHT22;45859;51.378;6.736;2022-07-29T00:35:20;19.50;99.90
59999;DHT22;45859;51.378;6.736;2022-07-29T00:38:04;19.50;99.90
59999;DHT22;45859;51.378;6.736;2022-07-29T00:40:30;19.50;99.90
59999;DHT22;45859;51.378;6.736;2022-07-29T00:42:56;19.50;99.90
59999;DHT22;45859;51.378;6.736;2022-07-29T00:45:21;19.40;99.90
59999;DHT22;45859;51.378;6.736;2022-07-29T00:47:47;19.40;99.90
59999;DHT22;45859;51.378;6.736;2022-07-29T00:50:13;19.40;99.90
59999;DHT22;45859;51.378;6.736;2022-07-29T00:52:40;19.30;99.90
59999;DHT22;45859;51.378;6.736;2022-07-29T00:55:08;19.30;99.90
59999;DHT22;45859;51.378;6.736;2022-07-29T00:57:36;19.30;99.90
59999;DHT22;45859;51.378;6.736;2022-07-29T01:00:07;19.30;99.90
59999;DHT22;45859;51.378;6.736;2022-07-29T01:02:33;19.30;99.90
59999;DHT22;45859;51.378;6.736;2022-07-29T01:04:59;19.30;99.90
59999;DHT22;45859;51.378;6.736;2022-07-29T01:07:26;19.20;99.90
59999;DHT22;45859;51.378;6.736;2022-07-29T01:09:52;19.20;99.90
59999;DHT22;45859;51.378;6.736;2022-07-29T01:12:22;19.20;99.90
59999;DHT22;45859;51.378;6.736;2022-07-29T01:14:48;19.20;99.90
59999;DHT22;45859;51.378;6.736;2022-07-29T01:20:18;19.20;99.90
59999;DHT22;45859;51.378;6.736;2022-07-29T01:30:58;19.10;99.90
59999;DHT22;45859;51.378;6.736;2022-07-29T01:33:26;19.10;99.90
59999;DHT22;45859;51.378;6.736;2022-07-29T01:36:16;19.10;99.90
59999;DHT22;45859;51.378;6.736;2022-07-29T01:38:45;19.10;99.90
59999;DHT22;45859;51.378;6.736;2022-07-29T01:41:16;19.10;99.90
59999;DHT22;45859;51.378;6.736;2022-07-29T01:43:49;19.10;99.90
59999;DHT22;45859;51.378;6.736;2022-07-29T01:46:33;19.10;99.90
59999;DHT22;45859;51.378;6.736;2022-07-29T01:49:10;19.10;99.90
59999;DHT22;45859;51.378;6.736;2022-07-29T01:51:56;19.10;99.90
59999;DHT22;45859;51.378;6.736;2022-07-29T01:54:50;19.10;99.90
59999;DHT22;45859;51.378;6.736;2022-07-29T01:57:18;19.10;99.90
59999;DHT22;45859;51.378;6.736;2022-07-29T01:59:47;19.10;99.90
59999;DHT22;45859;51.378;6.736;2022-07-29T02:02:18;19.10;99.90
59999;DHT22;45859;51.378;6.736;2022-07-29T02:04:47;19.00;99.90
59999;DHT22;45859;51.378;6.736;2022-07-29T02:07:18;19.00;99.90
59999;DHT22;45859;51.378;6.736;2022-07-29T02:09:45;19.00;99.90
59999;DHT22;45859;51.378;6.736;2022-07-29T02:12:14;19.00;99.90
59999;DHT22;45859;51.378;6.736;2022-07-29T02:14:46;19.00;99.90
59999;DHT22;45859;51.378;6.736;2022-07-29T02:17:13;19.00;99.90
59999;DHT22;45859;51.378;6.736;2022-07-29T02:19:43;19.00;99.90
59999;DHT22;45859;51.378;6.736;2022-07-29T02:22:11;19.00;99.90
59999;DHT22;45859;51.378;6.736;2022-07-29T02:24:38;19.00;99.90
59999;DHT22;45859;51.378;6.736;2022-07-29T02:27:06;19.00;99.90
59999;DHT22;45859;51.378;6.736;2022-07-29T02:29:33;19.00;99.90
59999;DHT22;45859;51.378;6.736;2022-07-29T02:32:01;19.10;99.90
59999;DHT22;45859;51.378;6.736;2022-07-29T02:34:28;19.00;99.90
59999;DHT22;45859;51.378;6.736;2022-07-29T02:36:55;19.00;99.90
59999;DHT22;45859;51.378;6.736;2022-07-29T02:39:22;19.00;99.90
59999;DHT22;45859;51.378;6.736;2022-07-29T02:41:57;19.00;99.90
59999;DHT22;45859;51.378;6.736;2022-07-29T02:44:25;19.00;99.90
59999;DHT22;45859;51.378;6.736;2022-07-29T02:50:11;19.00;99.90
59999;DHT22;45859;51.378;6.736;2022-07-29T02:52:45;18.90;99.90
59999;DHT22;45859;51.378;6.736;2022-07-29T02:55:32;18.80;99.90
59999;DHT22;45859;51.378;6.736;2022-07-29T02:58:15;18.80;99.90
59999;DHT22;45859;51.378;6.736;2022-07-29T03:00:44;18.70;99.90
59999;DHT22;45859;51.378;6.736;2022-07-29T03:03:14;18.60;99.90
59999;DHT22;45859;51.378;6.736;2022-07-29T03:05:40;18.60;99.90
59999;DHT22;45859;51.378;6.736;2022-07-29T03:08:08;18.50;99.90
59999;DHT22;45859;51.378;6.736;2022-07-29T03:10:34;18.40;99.90
59999;DHT22;45859;51.378;6.736;2022-07-29T03:13:02;18.40;99.90
59999;DHT22;45859;51.378;6.736;2022-07-29T03:15:29;18.40;99.90
59999;DHT22;45859;51.378;6.736;2022-07-29T03:17:55;18.40;99.90
59999;DHT22;45859;51.378;6.736;2022-07-29T03:20:21;18.30;99.90
59999;DHT22;45859;51.378;6.736;2022-07-29T03:22:47;18.30;99.90
59999;DHT22;45859;51.378;6.736;2022-07-29T03:25:15;18.20;99.90
59999;DHT22;45859;51.378;6.736;2022-07-29T03:27:41;18.20;99.90
59999;DHT22;45859;51.378;6.736;2022-07-29T03:30:08;18.10;99.90
59999;DHT22;45859;51.378;6.736;2022-07-29T03:32:34;18.10;99.90
59999;DHT22;45859;51.378;6.736;2022-07-29T03:35:00;18.10;99.90
59999;DHT22;45859;51.378;6.736;2022-07-29T03:37:26;18.10;99.90
59999;DHT22;45859;51.378;6.736;2022-07-29T03:39:55;18.00;99.90
59999;DHT22;45859;51.378;6.736;2022-07-29T03:42:24;17.60;99.90
59999;DHT22;45859;51.378;6.736;2022-07-29T03:44:52;18.00;99.90
59999;DHT22;45859;51.378;6.736;2022-07-29T03:47:22;17.90;99.90
59999;DHT22;45859;51.378;6.736;2022-07-29T03:49:55;18.00;99.90
59999;DHT22;45859;51.378;6.736;2022-07-29T03:52:22;17.90;99.90
59999;DHT22;45859;51.378;6.736;2022-07-29T03:54:48;17.90;99.90
59999;DHT22;45859;51.378;6.736;2022-07-29T03:57:16;17.80;99.90
59999;DHT22;45859;51.378;6.736;2022-07-29T03:59:42;17.90;99.90
59999;DHT22;45859;51.378;6.736;2022-07-29T04:02:11;17.80;99.90
59999;DHT22;45859;51.378;6.736;2022-07-29T04:04:37;17.80;99.90
59999;DHT22;45859;51.378;6.736;2022-07-29T04:07:03;17.80;99.90
59999;DHT22;45859;51.378;6.736;2022-07-29T04:09:29;17.60;99.90
59999;DHT22;45859;51.378;6.736;2022-07-29T04:11:54;17.50;99.90
59999;DHT22;45859;51.378;6.736;2022-07-29T04:14:20;17.30;99.90
59999;DHT22;45859;51.378;6.736;2022-07-29T04:16:46;17.10;99.90
59999;DHT22;45859;51.378;6.736;2022-07-29T04:19:11;17.00;99.90
59999;DHT22;45859;51.378;6.736;2022-07-29T04:21:40;16.90;99.90
59999;DHT22;45859;51.378;6.736;2022-07-29T04:24:07;16.80;99.90
59999;DHT22;45859;51.378;6.736;2022-07-29T04:26:34;16.80;99.90
59999;DHT22;45859;51.378;6.736;2022-07-29T04:28:59;16.70;99.90
59999;DHT22;45859;51.378;6.736;2022-07-29T04:31:25;16.60;99.90
59999;DHT22;45859;51.378;6.736;2022-07-29T04:33:51;16.50;99.90
59999;DHT22;45859;51.378;6.736;2022-07-29T04:36:17;16.50;99.90
59999;DHT22;45859;51.378;6.736;2022-07-29T04:38:43;16.40;99.90
59999;DHT22;45859;51.378;6.736;2022-07-29T04:41:08;16.40;99.90
59999;DHT22;45859;51.378;6.736;2022-07-29T04:43:35;16.40;99.90
59999;DHT22;45859;51.378;6.736;2022-07-29T04:46:01;16.30;99.90
59999;DHT22;45859;51.378;6.736;2022-07-29T04:48:27;16.30;99.90
59999;DHT22;45859;51.378;6.736;2022-07-29T04:50:53;16.30;99.90
59999;DHT22;45859;51.378;6.736;2022-07-29T04:53:18;16.30;99.90
59999;DHT22;45859;51.378;6.736;2022-07-29T04:55:44;16.40;99.90
59999;DHT22;45859;51.378;6.736;2022-07-29T04:58:10;16.40;99.90
59999;DHT22;45859;51.378;6.736;2022-07-29T05:00:36;16.40;99.90
59999;DHT22;45859;51.378;6.736;2022-07-29T05:03:02;16.40;99.90
59999;DHT22;45859;51.378;6.736;2022-07-29T05:05:28;16.40;99.90
59999;DHT22;45859;51.378;6.736;2022-07-29T05:07:53;16.40;99.90
59999;DHT22;45859;51.378;6.736;2022-07-29T05:10:19;16.30;99.90
59999;DHT22;45859;51.378;6.736;2022-07-29T05:12:45;16.20;99.90
59999;DHT22;45859;51.378;6.736;2022-07-29T05:15:10;16.10;99.90
59999;DHT22;45859;51.378;6.736;2022-07-29T05:17:36;16.10;99.90
59999;DHT22;45859;51.378;6.736;2022-07-29T05:20:03;16.00;99.90
59999;DHT22;45859;51.378;6.736;2022-07-29T05:22:29;15.90;99.90
59999;DHT22;45859;51.378;6.736;2022-07-29T05:24:54;15.80;99.90
59999;DHT22;45859;51.378;6.736;2022-07-29T05:27:20;15.70;99.90
59999;DHT22;45859;51.378;6.736;2022-07-29T05:29:45;15.70;99.90
59999;DHT22;45859;51.378;6.736;2022-07-29T05:32:12;15.70;99.90
59999;DHT22;45859;51.378;6.736;2022-07-29T05:34:38;15.70;99.90
59999;DHT22;45859;51.378;6.736;2022-07-29T05:37:03;15.70;99.90
59999;DHT22;45859;51.378;6.736;2022-07-29T05:39:29;15.70;99.90
59999;DHT22;45859;51.378;6.736;2022-07-29T05:41:55;15.70;99.90
59999;DHT22;45859;51.378;6.736;2022-07-29T05:44:20;15.70;99.90
59999;DHT22;45859;51.378;6.736;2022-07-29T05:46:46;15.80;99.90
59999;DHT22;45859;51.378;6.736;2022-07-29T05:49:12;15.80;99.90
59999;DHT22;45859;51.378;6.736;2022-07-29T05:51:37;15.80;99.90
59999;DHT22;45859;51.378;6.736;2022-07-29T05:54:03;15.90;99.90
59999;DHT22;45859;51.378;6.736;2022-07-29T05:56:28;16.00;99.90
59999;DHT22;45859;51.378;6.736;2022-07-29T05:58:54;16.00;99.90
59999;DHT22;45859;51.378;6.736;2022-07-29T06:01:20;16.10;99.90
59999;DHT22;45859;51.378;6.736;2022-07-29T06:03:46;16.20;99.90
59999;DHT22;45859;51.378;6.736;2022-07-29T06:06:11;16.20;99.90
59999;DHT22;45859;51.378;6.736;2022-07-29T06:08:37;16.30;99.90
59999;DHT22;45859;51.378;6.736;2022-07-29T06:11:04;16.40;99.90
59999;DHT22;45859;51.378;6.736;2022-07-29T06:13:30;16.50;99.90
59999;DHT22;45859;51.378;6.736;2022-07-29T06:15:56;16.60;99.90
59999;DHT22;45859;51.378;6.736;2022-07-29T06:18:22;16.70;99.90
59999;DHT22;45859;51.378;6.736;2022-07-29T06:20:53;16.90;99.90
59999;DHT22;45859;51.378;6.736;2022-07-29T06:23:19;17.00;99.90
59999;DHT22;45859;51.378;6.736;2022-07-29T06:25:45;17.10;99.90
59999;DHT22;45859;51.378;6.736;2022-07-29T06:28:11;17.20;99.90
59999;DHT22;45859;51.378;6.736;2022-07-29T06:30:38;17.30;99.90
59999;DHT22;45859;51.378;6.736;2022-07-29T06:33:04;17.30;99.90
59999;DHT22;45859;51.378;6.736;2022-07-29T06:35:32;17.40;99.90
59999;DHT22;45859;51.378;6.736;2022-07-29T06:37:58;17.40;99.90
59999;DHT22;45859;51.378;6.736;2022-07-29T06:40:24;17.40;99.90
59999;DHT22;45859;51.378;6.736;2022-07-29T06:43:08;17.20;99.90
59999;DHT22;45859;51.378;6.736;2022-07-29T06:45:34;17.10;99.90
59999;DHT22;45859;51.378;6.736;2022-07-29T06:48:00;16.90;99.90
59999;DHT22;45859;51.378;6.736;2022-07-29T06:50:25;16.80;99.90
59999;DHT22;45859;51.378;6.736;2022-07-29T06:52:51;16.70;99.90
59999;DHT22;45859;51.378;6.736;2022-07-29T06:55:17;16.60;99.90
59999;DHT22;45859;51.378;6.736;2022-07-29T06:57:45;16.50;99.90
59999;DHT22;45859;51.378;6.736;2022-07-29T07:00:12;16.50;99.90
59999;DHT22;45859;51.378;6.736;2022-07-29T07:02:38;16.60;99.90
59999;DHT22;45859;51.378;6.736;2022-07-29T07:05:04;16.50;99.90
59999;DHT22;45859;51.378;6.736;2022-07-29T07:07:30;16.50;99.90
59999;DHT22;45859;51.378;6.736;2022-07-29T07:09:56;16.60;99.90
59999;DHT22;45859;51.378;6.736;2022-07-29T07:12:22;16.70;99.90
59999;DHT22;45859;51.378;6.736;2022-07-29T07:14:48;16.80;99.90
59999;DHT22;45859;51.378;6.736;2022-07-29T07:17:13;16.90;99.90
59999;DHT22;45859;51.378;6.736;2022-07-29T07:19:39;16.90;99.90
59999;DHT22;45859;51.378;6.736;2022-07-29T07:22:05;17.00;99.90
59999;DHT22;45859;51.378;6.736;2022-07-29T07:24:30;17.10;99.90
59999;DHT22;45859;51.378;6.736;2022-07-29T07:26:56;17.30;99.90
59999;DHT22;45859;51.378;6.736;2022-07-29T07:29:21;17.30;99.90
59999;DHT22;45859;51.378;6.736;2022-07-29T07:31:47;17.40;99.90
59999;DHT22;45859;51.378;6.736;2022-07-29T07:34:13;17.40;99.90
59999;DHT22;45859;51.378;6.736;2022-07-29T07:36:38;17.40;99.90
59999;DHT22;45859;51.378;6.736;2022-07-29T07:39:04;17.50;99.90
59999;DHT22;45859;51.378;6.736;2022-07-29T07:41:30;17.40;99.90
59999;DHT22;45859;51.378;6.736;2022-07-29T07:43:56;17.50;99.90
59999;DHT22;45859;51.378;6.736;2022-07-29T07:46:21;17.50;99.90
59999;DHT22;45859;51.378;6.736;2022-07-29T07:48:47;17.50;99.90
59999;DHT22;45859;51.378;6.736;2022-07-29T07:51:13;17.50;99.90
59999;DHT22;45859;51.378;6.736;2022-07-29T07:53:38;17.50;99.90
59999;DHT22;45859;51.378;6.736;2022-07-29T07:56:04;17.50;99.90
59999;DHT22;45859;51.378;6.736;2022-07-29T07:58:31;17.40;99.90
59999;DHT22;45859;51.378;6.736;2022-07-29T08:00:57;17.40;99.90
59999;DHT22;45859;51.378;6.736;2022-07-29T08:03:23;17.40;99.90
59999;DHT22;45859;51.378;6.736;2022-07-29T08:05:48;17.50;99.90
59999;DHT22;45859;51.378;6.736;2022-07-29T08:08:16;17.50;99.90
59999;DHT22;45859;51.378;6.736;2022-07-29T08:10:41;17.40;99.90
59999;DHT22;45859;51.378;6.736;2022-07-29T08:13:23;17.40;99.90
59999;DHT22;45859;51.378;6.736;2022-07-29T08:15:51;17.40;99.90
59999;DHT22;45859;51.378;6.736;2022-07-29T08:18:38;17.40;99.90
59999;DHT22;45859;51.378;6.736;2022-07-29T08:21:04;17.30;99.90
59999;DHT22;45859;51.378;6.736;2022-07-29T08:23:30;17.40;99.90
59999;DHT22;45859;51.378;6.736;2022-07-29T08:26:04;17.40;99.90
59999;DHT22;45859;51.378;6.736;2022-07-29T08:28:30;17.40;99.90
59999;DHT22;45859;51.378;6.736;2022-07-29T08:30:56;17.40;99.90
59999;DHT22;45859;51.378;6.736;2022-07-29T08:33:21;17.40;99.90
59999;DHT22;45859;51.378;6.736;2022-07-29T08:35:47;17.60;99.90
59999;DHT22;45859;51.378;6.736;2022-07-29T08:38:13;17.60;99.90
59999;DHT22;45859;51.378;6.736;2022-07-29T08:40:39;17.70;99.90
59999;DHT22;45859;51.378;6.736;2022-07-29T08:43:08;17.80;99.90
59999;DHT22;45859;51.378;6.736;2022-07-29T08:45:48;17.90;99.90
59999;DHT22;45859;51.378;6.736;2022-07-29T08:48:17;18.00;99.90
59999;DHT22;45859;51.378;6.736;2022-07-29T08:50:43;18.10;99.90
59999;DHT22;45859;51.378;6.736;2022-07-29T08:53:14;18.30;99.90
59999;DHT22;45859;51.378;6.736;2022-07-29T08:55:45;18.30;99.90
59999;DHT22;45859;51.378;6.736;2022-07-29T08:58:11;18.30;99.90
59999;DHT22;45859;51.378;6.736;2022-07-29T09:00:42;18.30;99.90
59999;DHT22;45859;51.378;6.736;2022-07-29T09:03:09;18.40;99.90
59999;DHT22;45859;51.378;6.736;2022-07-29T09:05:37;18.40;99.90
59999;DHT22;45859;51.378;6.736;2022-07-29T09:08:06;18.40;99.90
59999;DHT22;45859;51.378;6.736;2022-07-29T09:10:32;18.30;99.90
59999;DHT22;45859;51.378;6.736;2022-07-29T09:12:59;18.30;99.90
59999;DHT22;45859;51.378;6.736;2022-07-29T09:15:25;18.30;99.90
59999;DHT22;45859;51.378;6.736;2022-07-29T09:17:51;18.20;99.90
59999;DHT22;45859;51.378;6.736;2022-07-29T09:20:21;18.30;99.90
59999;DHT22;45859;51.378;6.736;2022-07-29T09:22:50;18.30;99.90
59999;DHT22;45859;51.378;6.736;2022-07-29T09:25:38;18.30;99.90
59999;DHT22;45859;51.378;6.736;2022-07-29T09:28:08;18.30;99.90
59999;DHT22;45859;51.378;6.736;2022-07-29T09:30:34;18.20;99.90
59999;DHT22;45859;51.378;6.736;2022-07-29T09:33:02;18.40;99.90
59999;DHT22;45859;51.378;6.736;2022-07-29T09:35:29;18.60;99.90
59999;DHT22;45859;51.378;6.736;2022-07-29T09:37:55;18.70;99.90
59999;DHT22;45859;51.378;6.736;2022-07-29T09:40:23;18.70;99.90
59999;DHT22;45859;51.378;6.736;2022-07-29T09:42:50;18.80;99.90
59999;DHT22;45859;51.378;6.736;2022-07-29T09:45:45;18.90;99.90
59999;DHT22;45859;51.378;6.736;2022-07-29T09:48:18;19.00;99.90
59999;DHT22;45859;51.378;6.736;2022-07-29T09:50:45;19.00;99.90
59999;DHT22;45859;51.378;6.736;2022-07-29T09:53:12;19.00;99.90
59999;DHT22;45859;51.378;6.736;2022-07-29T09:55:54;19.00;99.90
59999;DHT22;45859;51.378;6.736;2022-07-29T09:58:22;19.00;99.90
59999;DHT22;45859;51.378;6.736;2022-07-29T10:00:49;19.00;99.90
59999;DHT22;45859;51.378;6.736;2022-07-29T10:03:16;19.00;99.90
59999;DHT22;45859;51.378;6.736;2022-07-29T10:05:42;18.90;99.90
59999;DHT22;45859;51.378;6.736;2022-07-29T10:08:10;19.00;99.90
59999;DHT22;45859;51.378;6.736;2022-07-29T10:10:41;18.90;99.90
59999;DHT22;45859;51.378;6.736;2022-07-29T10:13:10;19.20;99.90
59999;DHT22;45859;51.378;6.736;2022-07-29T10:15:38;19.50;99.90
59999;DHT22;45859;51.378;6.736;2022-07-29T10:18:06;20.00;99.90
59999;DHT22;45859;51.378;6.736;2022-07-29T10:20:33;20.60;99.90
59999;DHT22;45859;51.378;6.736;2022-07-29T10:22:59;21.00;99.90
59999;DHT22;45859;51.378;6.736;2022-07-29T10:25:25;21.40;99.90
59999;DHT22;45859;51.378;6.736;2022-07-29T10:27:51;21.70;99.90
59999;DHT22;45859;51.378;6.736;2022-07-29T10:30:18;21.90;99.90
59999;DHT22;45859;51.378;6.736;2022-07-29T10:33:09;21.90;99.90
59999;DHT22;45859;51.378;6.736;2022-07-29T10:38:34;22.20;99.90
59999;DHT22;45859;51.378;6.736;2022-07-29T10:43:58;22.50;99.90
59999;DHT22;45859;51.378;6.736;2022-07-29T10:46:25;22.80;99.90
59999;DHT22;45859;51.378;6.736;2022-07-29T10:49:24;23.00;99.90
59999;DHT22;45859;51.378;6.736;2022-07-29T10:52:07;23.30;99.90
59999;DHT22;45859;51.378;6.736;2022-07-29T10:54:38;23.30;99.90
59999;DHT22;45859;51.378;6.736;2022-07-29T10:57:22;23.40;99.90
59999;DHT22;45859;51.378;6.736;2022-07-29T11:05:09;23.50;99.90
59999;DHT22;45859;51.378;6.736;2022-07-29T11:07:36;23.30;99.90
59999;DHT22;45859;51.378;6.736;2022-07-29T11:15:09;23.10;99.90
59999;DHT22;45859;51.378;6.736;2022-07-29T11:18:08;23.00;99.90
59999;DHT22;45859;51.378;6.736;2022-07-29T11:20:47;23.00;99.90
59999;DHT22;45859;51.378;6.736;2022-07-29T11:23:43;23.10;99.90
59999;DHT22;45859;51.378;6.736;2022-07-29T11:28:54;23.30;99.90
59999;DHT22;45859;51.378;6.736;2022-07-29T11:34:26;23.50;99.90
59999;DHT22;45859;51.378;6.736;2022-07-29T11:45:44;23.40;99.90
59999;DHT22;45859;51.378;6.736;2022-07-29T11:47:51;23.80;99.90
59999;DHT22;45859;51.378;6.736;2022-07-29T11:50:28;24.10;99.90
59999;DHT22;45859;51.378;6.736;2022-07-29T11:52:54;24.40;99.90
59999;DHT22;45859;51.378;6.736;2022-07-29T11:55:21;24.30;99.90
59999;DHT22;45859;51.378;6.736;2022-07-29T11:57:49;24.30;99.90
59999;DHT22;45859;51.378;6.736;2022-07-29T12:00:34;24.40;99.90
59999;DHT22;45859;51.378;6.736;2022-07-29T12:03:03;24.30;99.90
59999;DHT22;45859;51.378;6.736;2022-07-29T12:05:33;24.30;99.90
59999;DHT22;45859;51.378;6.736;2022-07-29T12:08:19;24.30;99.90
59999;DHT22;45859;51.378;6.736;2022-07-29T12:10:47;24.50;99.90
59999;DHT22;45859;51.378;6.736;2022-07-29T12:13:14;24.50;99.90
59999;DHT22;45859;51.378;6.736;2022-07-29T12:15:41;24.40;99.90
59999;DHT22;45859;51.378;6.736;2022-07-29T12:18:11;24.30;99.90
59999;DHT22;45859;51.378;6.736;2022-07-29T12:20:37;24.20;99.90
59999;DHT22;45859;51.378;6.736;2022-07-29T12:23:09;24.40;99.90
59999;DHT22;45859;51.378;6.736;2022-07-29T12:25:39;24.50;99.90
59999;DHT22;45859;51.378;6.736;2022-07-29T12:28:06;24.30;99.90
59999;DHT22;45859;51.378;6.736;2022-07-29T12:30:38;24.40;99.90
59999;DHT22;45859;51.378;6.736;2022-07-29T12:33:29;24.30;99.90
59999;DHT22;45859;51.378;6.736;2022-07-29T12:35:59;24.30;99.90
59999;DHT22;45859;51.378;6.736;2022-07-29T12:38:25;24.30;99.90
59999;DHT22;45859;51.378;6.736;2022-07-29T12:40:52;24.40;99.90
59999;DHT22;45859;51.378;6.736;2022-07-29T12:43:21;24.60;99.90
59999;DHT22;45859;51.378;6.736;2022-07-29T12:45:49;24.60;99.90
59999;DHT22;45859;51.378;6.736;2022-07-29T12:48:17;24.50;99.90
59999;DHT22;45859;51.378;6.736;2022-07-29T12:51:12;24.40;99.90
59999;DHT22;45859;51.378;6.736;2022-07-29T12:53:39;24.30;99.90
59999;DHT22;45859;51.378;6.736;2022-07-29T12:56:06;24.30;99.90
59999;DHT22;45859;51.378;6.736;2022-07-29T12:58:41;24.30;99.90
59999;DHT22;45859;51.378;6.736;2022-07-29T13:01:17;24.40;99.90
59999;DHT22;45859;51.378;6.736;2022-07-29T13:06:44;24.70;99.90
59999;DHT22;45859;51.378;6.736;2022-07-29T13:11:43;24.70;99.90
59999;DHT22;45859;51.378;6.736;2022-07-29T13:14:12;24.60;99.90
59999;DHT22;45859;51.378;6.736;2022-07-29T13:19:47;24.60;99.90
59999;DHT22;45859;51.378;6.736;2022-07-29T13:22:15;24.60;99.90
59999;DHT22;45859;51.378;6.736;2022-07-29T13:24:50;24.50;99.90
59999;DHT22;45859;51.378;6.736;2022-07-29T13:27:18;24.50;99.90
59999;DHT22;45859;51.378;6.736;2022-07-29T13:29:44;24.40;99.90
59999;DHT22;45859;51.378;6.736;2022-07-29T13:32:09;24.40;99.90
59999;DHT22;45859;51.378;6.736;2022-07-29T13:34:35;24.30;99.90
59999;DHT22;45859;51.378;6.736;2022-07-29T13:37:01;24.10;99.90
59999;DHT22;45859;51.378;6.736;2022-07-29T13:39:26;23.90;99.90
59999;DHT22;45859;51.378;6.736;2022-07-29T13:41:52;23.60;99.90
59999;DHT22;45859;51.378;6.736;2022-07-29T13:44:18;23.50;99.90
59999;DHT22;45859;51.378;6.736;2022-07-29T13:46:43;23.40;99.90
59999;DHT22;45859;51.378;6.736;2022-07-29T13:49:09;23.40;99.90
59999;DHT22;45859;51.378;6.736;2022-07-29T13:51:37;23.40;99.90
59999;DHT22;45859;51.378;6.736;2022-07-29T13:54:03;23.30;99.90
59999;DHT22;45859;51.378;6.736;2022-07-29T13:56:29;23.10;99.90
59999;DHT22;45859;51.378;6.736;2022-07-29T13:58:54;23.00;99.90
59999;DHT22;45859;51.378;6.736;2022-07-29T14:01:21;23.10;99.90
59999;DHT22;45859;51.378;6.736;2022-07-29T14:03:46;23.00;99.90
59999;DHT22;45859;51.378;6.736;2022-07-29T14:06:12;22.90;99.90
59999;DHT22;45859;51.378;6.736;2022-07-29T14:08:38;23.00;99.90
59999;DHT22;45859;51.378;6.736;2022-07-29T14:11:05;23.00;99.90
59999;DHT22;45859;51.378;6.736;2022-07-29T14:13:31;22.90;99.90
59999;DHT22;45859;51.378;6.736;2022-07-29T14:15:57;22.90;99.90
59999;DHT22;45859;51.378;6.736;2022-07-29T14:18:22;22.80;99.90
59999;DHT22;45859;51.378;6.736;2022-07-29T14:20:48;22.70;99.90
59999;DHT22;45859;51.378;6.736;2022-07-29T14:23:14;22.70;99.90
59999;DHT22;45859;51.378;6.736;2022-07-29T14:25:39;22.70;99.90
59999;DHT22;45859;51.378;6.736;2022-07-29T14:28:05;22.80;99.90
59999;DHT22;45859;51.378;6.736;2022-07-29T14:30:31;22.80;99.90
59999;DHT22;45859;51.378;6.736;2022-07-29T14:32:56;22.70;99.90
59999;DHT22;45859;51.378;6.736;2022-07-29T14:35:22;22.70;99.90
59999;DHT22;45859;51.378;6.736;2022-07-29T14:37:51;22.80;99.90
59999;DHT22;45859;51.378;6.736;2022-07-29T14:40:17;22.70;99.90
59999;DHT22;45859;51.378;6.736;2022-07-29T14:42:42;22.70;99.90
59999;DHT22;45859;51.378;6.736;2022-07-29T14:45:09;22.70;99.90
59999;DHT22;45859;51.378;6.736;2022-07-29T14:47:36;22.80;99.90
59999;DHT22;45859;51.378;6.736;2022-07-29T14:50:03;22.80;99.90
59999;DHT22;45859;51.378;6.736;2022-07-29T14:52:32;22.90;99.90
59999;DHT22;45859;51.378;6.736;2022-07-29T14:54:59;22.90;99.90
59999;DHT22;45859;51.378;6.736;2022-07-29T14:57:25;22.90;99.90
59999;DHT22;45859;51.378;6.736;2022-07-29T14:59:50;22.90;99.90
59999;DHT22;45859;51.378;6.736;2022-07-29T15:02:16;23.00;99.90
59999;DHT22;45859;51.378;6.736;2022-07-29T15:04:42;23.10;99.90
59999;DHT22;45859;51.378;6.736;2022-07-29T15:07:08;23.00;99.90
59999;DHT22;45859;51.378;6.736;2022-07-29T15:09:33;23.00;99.90
59999;DHT22;45859;51.378;6.736;2022-07-29T15:11:59;23.00;99.90
59999;DHT22;45859;51.378;6.736;2022-07-29T15:14:25;23.00;99.90
59999;DHT22;45859;51.378;6.736;2022-07-29T15:16:50;23.10;99.90
59999;DHT22;45859;51.378;6.736;2022-07-29T15:19:19;23.20;99.90
59999;DHT22;45859;51.378;6.736;2022-07-29T15:21:45;23.20;99.90
59999;DHT22;45859;51.378;6.736;2022-07-29T15:24:10;23.20;99.90
59999;DHT22;45859;51.378;6.736;2022-07-29T15:26:36;23.20;99.90
59999;DHT22;45859;51.378;6.736;2022-07-29T15:29:02;23.30;99.90
59999;DHT22;45859;51.378;6.736;2022-07-29T15:31:28;23.30;99.90
59999;DHT22;45859;51.378;6.736;2022-07-29T15:33:53;23.40;99.90
59999;DHT22;45859;51.378;6.736;2022-07-29T15:36:19;23.50;99.90
59999;DHT22;45859;51.378;6.736;2022-07-29T15:38:45;23.60;99.90
59999;DHT22;45859;51.378;6.736;2022-07-29T15:41:14;23.50;99.90
59999;DHT22;45859;51.378;6.736;2022-07-29T15:43:43;23.50;99.90
59999;DHT22;45859;51.378;6.736;2022-07-29T15:46:13;23.40;99.90
59999;DHT22;45859;51.378;6.736;2022-07-29T15:48:58;23.40;99.90
59999;DHT22;45859;51.378;6.736;2022-07-29T15:51:24;23.40;99.90
59999;DHT22;45859;51.378;6.736;2022-07-29T15:53:49;23.40;99.90
59999;DHT22;45859;51.378;6.736;2022-07-29T15:56:15;23.40;99.90
59999;DHT22;45859;51.378;6.736;2022-07-29T15:58:41;23.30;99.90
59999;DHT22;45859;51.378;6.736;2022-07-29T16:01:06;23.40;99.90
59999;DHT22;45859;51.378;6.736;2022-07-29T16:03:32;23.40;99.90
59999;DHT22;45859;51.378;6.736;2022-07-29T16:05:58;23.50;99.90
59999;DHT22;45859;51.378;6.736;2022-07-29T16:08:24;23.50;99.90
59999;DHT22;45859;51.378;6.736;2022-07-29T16:10:49;23.50;99.90
59999;DHT22;45859;51.378;6.736;2022-07-29T16:13:15;23.50;99.90
59999;DHT22;45859;51.378;6.736;2022-07-29T16:15:41;23.50;99.90
59999;DHT22;45859;51.378;6.736;2022-07-29T16:18:07;23.60;99.90
59999;DHT22;45859;51.378;6.736;2022-07-29T16:20:35;23.50;99.90
59999;DHT22;45859;51.378;6.736;2022-07-29T16:23:00;23.40;99.90
59999;DHT22;45859;51.378;6.736;2022-07-29T16:25:27;23.40;99.90
59999;DHT22;45859;51.378;6.736;2022-07-29T16:27:53;23.40;99.90
59999;DHT22;45859;51.378;6.736;2022-07-29T16:30:19;23.40;99.90